^^
Grace C. Lehan Memorial Weather Station Historical Data
Daily Summary for December 18, 2021 Units:  Both    English   Metric
Daily Weekly Monthly Yearly
  High: Low: Average:
Temperature: 42.2 °F /  5.7 °C 36.5 °F /  2.5 °C 39 °F /  3.9 °C
Dew Point: 35.8 °F /  2.1 °C 29.1 °F /  -1.6 °C 33.3 °F /  0.7 °C
Humidity: 95% 59.9% 81%
Wind Speed: 3.1mph /  5km/h - 0.5mph /  0.8km/h
Wind Gust: 11mph /  17.7km/h - -
Wind- - South
Pressure: 30.18 in /  1021.9 hPa 29.79 in /  1008.7 hPa -
Precipitation: 0.33 in /  8.38 mm    
 
 
Tabular Data for December 18, 2021
Time Temperature Dew Point Pressure Wind Wind Speed Wind Gust Humidity Rainfall Rate (Hourly) solar
00:04 42.2 °F /  5.7 °C 29.3 °F /  -1.5 °C 30.16in /  1021.2hPa NW 0.6mph /  1km/h 11mph /  17.7km/h 59.9% 0.00in /  0mm 0 W/m2
00:09 42 °F /  5.6 °C 29.2 °F /  -1.6 °C 30.16in /  1021.2hPa NW 1.5mph /  2.4km/h 6mph /  9.7km/h 60% 0.00in /  0mm 0 W/m2
00:14 41.9 °F /  5.5 °C 29.1 °F /  -1.6 °C 30.16in /  1021.2hPa WNW 3.1mph /  5km/h 11mph /  17.7km/h 60% 0.00in /  0mm 0 W/m2
00:19 41.9 °F /  5.5 °C 29.3 °F /  -1.5 °C 30.16in /  1021.2hPa WNW 0.4mph /  0.6km/h 11mph /  17.7km/h 60.7% 0.00in /  0mm 0 W/m2
00:24 41.7 °F /  5.4 °C 29.4 °F /  -1.4 °C 30.16in /  1021.2hPa WNW 2.7mph /  4.3km/h 11mph /  17.7km/h 61.4% 0.00in /  0mm 0 W/m2
00:29 41.6 °F /  5.3 °C 29.2 °F /  -1.6 °C 30.16in /  1021.2hPa WNW 1.8mph /  2.9km/h 11mph /  17.7km/h 61.2% 0.00in /  0mm 0 W/m2
00:34 41.6 °F /  5.3 °C 29.2 °F /  -1.6 °C 30.16in /  1021.2hPa WNW 0.2mph /  0.3km/h 11mph /  17.7km/h 61.2% 0.00in /  0mm 0 W/m2
00:39 41.6 °F /  5.3 °C 29.2 °F /  -1.6 °C 30.17in /  1021.6hPa Calm   3mph /  4.8km/h 61.2% 0.00in /  0mm 0 W/m2
00:44 41.6 °F /  5.3 °C 29.2 °F /  -1.6 °C 30.16in /  1021.2hPa Calm   3mph /  4.8km/h 61% 0.00in /  0mm 0 W/m2
00:49 41.5 °F /  5.3 °C 29.3 °F /  -1.5 °C 30.17in /  1021.6hPa WNW 0.6mph /  1km/h 4mph /  6.4km/h 61.6% 0.00in /  0mm 0 W/m2
00:54 41.5 °F /  5.3 °C 29.5 °F /  -1.4 °C 30.17in /  1021.6hPa WNW 1.2mph /  1.9km/h 6mph /  9.7km/h 62% 0.00in /  0mm 0 W/m2
00:59 41.5 °F /  5.3 °C 29.5 °F /  -1.4 °C 30.17in /  1021.6hPa WNW 0.9mph /  1.4km/h 6mph /  9.7km/h 62% 0.00in /  0mm 0 W/m2
01:04 41.5 °F /  5.3 °C 29.5 °F /  -1.4 °C 30.17in /  1021.6hPa WNW 0.1mph /  0.2km/h 6mph /  9.7km/h 62% 0.00in /  0mm 0 W/m2
01:09 41.5 °F /  5.3 °C 29.5 °F /  -1.4 °C 30.17in /  1021.6hPa WNW 1.7mph /  2.7km/h 7mph /  11.3km/h 62% 0.00in /  0mm 0 W/m2
01:14 41.5 °F /  5.3 °C 29.7 °F /  -1.3 °C 30.16in /  1021.2hPa WNW 2.3mph /  3.7km/h 8mph /  12.9km/h 62.5% 0.00in /  0mm 0 W/m2
01:19 41.5 °F /  5.3 °C 29.6 °F /  -1.3 °C 30.16in /  1021.2hPa WNW 2.9mph /  4.7km/h 9mph /  14.5km/h 62.3% 0.00in /  0mm 0 W/m2
01:24 41.5 °F /  5.3 °C 29.5 °F /  -1.4 °C 30.16in /  1021.2hPa WNW 2.9mph /  4.7km/h 9mph /  14.5km/h 62% 0.00in /  0mm 0 W/m2
01:29 41.5 °F /  5.3 °C 29.6 °F /  -1.3 °C 30.16in /  1021.2hPa WNW 0.1mph /  0.2km/h 9mph /  14.5km/h 62.2% 0.00in /  0mm 0 W/m2
01:34 41.5 °F /  5.3 °C 29.6 °F /  -1.3 °C 30.16in /  1021.2hPa WNW 0.8mph /  1.3km/h 9mph /  14.5km/h 62.4% 0.00in /  0mm 0 W/m2
01:39 41.5 °F /  5.3 °C 29.7 °F /  -1.3 °C 30.16in /  1021.2hPa Calm   4mph /  6.4km/h 62.6% 0.00in /  0mm 0 W/m2
01:44 41.5 °F /  5.3 °C 29.6 °F /  -1.3 °C 30.16in /  1021.2hPa WNW 2.1mph /  3.4km/h 7mph /  11.3km/h 62.4% 0.00in /  0mm 0 W/m2
01:49 41.4 °F /  5.2 °C 29.6 °F /  -1.3 °C 30.17in /  1021.6hPa WNW 1.7mph /  2.7km/h 7mph /  11.3km/h 62.5% 0.00in /  0mm 0 W/m2
01:54 41.4 °F /  5.2 °C 29.8 °F /  -1.2 °C 30.17in /  1021.6hPa WNW 2.4mph /  3.9km/h 7mph /  11.3km/h 63% 0.00in /  0mm 0 W/m2
01:59 41.4 °F /  5.2 °C 29.8 °F /  -1.2 °C 30.17in /  1021.6hPa WNW 1.1mph /  1.8km/h 7mph /  11.3km/h 63% 0.00in /  0mm 0 W/m2
02:04 41.4 °F /  5.2 °C 29.8 °F /  -1.2 °C 30.17in /  1021.6hPa NW 1.8mph /  2.9km/h 7mph /  11.3km/h 63% 0.00in /  0mm 0 W/m2
02:09 41.4 °F /  5.2 °C 29.7 °F /  -1.3 °C 30.17in /  1021.6hPa NW 0.4mph /  0.6km/h 7mph /  11.3km/h 63% 0.00in /  0mm 0 W/m2
02:14 41.3 °F /  5.2 °C 29.7 °F /  -1.3 °C 30.17in /  1021.6hPa NW 0.7mph /  1.1km/h 7mph /  11.3km/h 63% 0.00in /  0mm 0 W/m2
02:19 41.3 °F /  5.2 °C 29.7 °F /  -1.3 °C 30.17in /  1021.6hPa NW 1.6mph /  2.6km/h 7mph /  11.3km/h 63% 0.00in /  0mm 0 W/m2
02:24 41.2 °F /  5.1 °C 29.6 °F /  -1.3 °C 30.17in /  1021.6hPa NW 1.1mph /  1.8km/h 7mph /  11.3km/h 63% 0.00in /  0mm 0 W/m2
02:29 41.2 °F /  5.1 °C 29.8 °F /  -1.2 °C 30.18in /  1021.9hPa NW 0.9mph /  1.4km/h 7mph /  11.3km/h 63.5% 0.00in /  0mm 0 W/m2
02:34 41.2 °F /  5.1 °C 30 °F /  -1.1 °C 30.18in /  1021.9hPa NW 0.9mph /  1.4km/h 7mph /  11.3km/h 64% 0.00in /  0mm 0 W/m2
02:39 41.2 °F /  5.1 °C 30 °F /  -1.1 °C 30.18in /  1021.9hPa NW 0.2mph /  0.3km/h 5mph /  8km/h 64% 0.00in /  0mm 0 W/m2
02:44 41.2 °F /  5.1 °C 30 °F /  -1.1 °C 30.17in /  1021.6hPa NW 1.5mph /  2.4km/h 6mph /  9.7km/h 64% 0.00in /  0mm 0 W/m2
02:49 41.2 °F /  5.1 °C 30 °F /  -1.1 °C 30.18in /  1021.9hPa NW 0.3mph /  0.5km/h 6mph /  9.7km/h 64% 0.00in /  0mm 0 W/m2
02:54 41.2 °F /  5.1 °C 30 °F /  -1.1 °C 30.17in /  1021.6hPa NW 0.3mph /  0.5km/h 6mph /  9.7km/h 64% 0.00in /  0mm 0 W/m2
02:59 41.2 °F /  5.1 °C 29.9 °F /  -1.2 °C 30.17in /  1021.6hPa NW 0.6mph /  1km/h 6mph /  9.7km/h 64% 0.00in /  0mm 0 W/m2
03:04 41.2 °F /  5.1 °C 29.9 °F /  -1.2 °C 30.18in /  1021.9hPa NW 0.1mph /  0.2km/h 6mph /  9.7km/h 64% 0.00in /  0mm 0 W/m2
03:09 41.2 °F /  5.1 °C 30 °F /  -1.1 °C 30.17in /  1021.6hPa NW 0.9mph /  1.4km/h 5mph /  8km/h 64% 0.00in /  0mm 0 W/m2
03:14 41.2 °F /  5.1 °C 30 °F /  -1.1 °C 30.18in /  1021.9hPa NW 0.2mph /  0.3km/h 5mph /  8km/h 64% 0.00in /  0mm 0 W/m2
03:19 41.2 °F /  5.1 °C 30 °F /  -1.1 °C 30.17in /  1021.6hPa NW 0.1mph /  0.2km/h 5mph /  8km/h 64.2% 0.00in /  0mm 0 W/m2
03:24 41.2 °F /  5.1 °C 30 °F /  -1.1 °C 30.17in /  1021.6hPa Calm   5mph /  8km/h 64.1% 0.00in /  0mm 0 W/m2
03:29 41.2 °F /  5.1 °C 30.3 °F /  -0.9 °C 30.17in /  1021.6hPa Calm   5mph /  8km/h 64.9% 0.00in /  0mm 0 W/m2
03:34 41.2 °F /  5.1 °C 30.4 °F /  -0.9 °C 30.16in /  1021.2hPa Calm   5mph /  8km/h 65.1% 0.00in /  0mm 0 W/m2
03:39 41.1 °F /  5.1 °C 30.3 °F /  -0.9 °C 30.16in /  1021.2hPa NW 0.1mph /  0.2km/h 3mph /  4.8km/h 65% 0.00in /  0mm 0 W/m2
03:44 41.1 °F /  5.1 °C 30.3 °F /  -0.9 °C 30.16in /  1021.2hPa NW 0.4mph /  0.6km/h 3mph /  4.8km/h 65% 0.00in /  0mm 0 W/m2
03:49 41.1 °F /  5.1 °C 30.3 °F /  -0.9 °C 30.16in /  1021.2hPa NW 0.4mph /  0.6km/h 3mph /  4.8km/h 65% 0.00in /  0mm 0 W/m2
03:54 41.1 °F /  5.1 °C 30.5 °F /  -0.8 °C 30.16in /  1021.2hPa NW 0.3mph /  0.5km/h 4mph /  6.4km/h 65.6% 0.00in /  0mm 0 W/m2
03:59 41 °F /  5 °C 30.4 °F /  -0.9 °C 30.16in /  1021.2hPa Calm   4mph /  6.4km/h 65.7% 0.00in /  0mm 0 W/m2
04:00 41 °F /  5 °C 30.2 °F /  -1 °C 30.15in /  1020.9hPa Calm   4mph /  6.4km/h 65% 0.00in /  0mm 0 W/m2
04:09 41 °F /  5 °C 30.5 °F /  -0.8 °C 30.16in /  1021.2hPa NW 0.8mph /  1.3km/h 5mph /  8km/h 66% 0.00in /  0mm 0 W/m2
04:14 40.9 °F /  4.9 °C 30.4 °F /  -0.9 °C 30.16in /  1021.2hPa Calm   5mph /  8km/h 66% 0.00in /  0mm 0 W/m2
04:19 40.9 °F /  4.9 °C 30.4 °F /  -0.9 °C 30.16in /  1021.2hPa NW 1.4mph /  2.3km/h 6mph /  9.7km/h 66% 0.00in /  0mm 0 W/m2
04:24 40.9 °F /  4.9 °C 30.5 °F /  -0.8 °C 30.16in /  1021.2hPa NW 0.6mph /  1km/h 6mph /  9.7km/h 66.1% 0.00in /  0mm 0 W/m2
04:29 40.9 °F /  4.9 °C 30.8 °F /  -0.7 °C 30.15in /  1020.9hPa NW 0.5mph /  0.8km/h 6mph /  9.7km/h 67% 0.00in /  0mm 0 W/m2
04:34 40.9 °F /  4.9 °C 30.8 °F /  -0.7 °C 30.14in /  1020.5hPa NW 1.2mph /  1.9km/h 8mph /  12.9km/h 66.9% 0.00in /  0mm 0 W/m2
04:39 40.8 °F /  4.9 °C 30.5 °F /  -0.8 °C 30.15in /  1020.9hPa Calm   8mph /  12.9km/h 66.3% 0.00in /  0mm 0 W/m2
04:44 40.8 °F /  4.9 °C 30.6 °F /  -0.8 °C 30.15in /  1020.9hPa NW 2.6mph /  4.2km/h 8mph /  12.9km/h 66.7% 0.00in /  0mm 0 W/m2
04:49 40.7 °F /  4.8 °C 30.4 °F /  -0.9 °C 30.15in /  1020.9hPa NW 1.7mph /  2.7km/h 8mph /  12.9km/h 66.3% 0.00in /  0mm 0 W/m2
04:54 40.7 °F /  4.8 °C 30.4 °F /  -0.9 °C 30.15in /  1020.9hPa NNW 0.4mph /  0.6km/h 8mph /  12.9km/h 66.5% 0.00in /  0mm 0 W/m2
04:59 40.7 °F /  4.8 °C 30.6 °F /  -0.8 °C 30.15in /  1020.9hPa NNW 0.4mph /  0.6km/h 8mph /  12.9km/h 67% 0.00in /  0mm 0 W/m2
05:04 40.7 °F /  4.8 °C 30.6 °F /  -0.8 °C 30.15in /  1020.9hPa NNW 0.5mph /  0.8km/h 8mph /  12.9km/h 67% 0.00in /  0mm 0 W/m2
05:09 40.6 °F /  4.8 °C 30.5 °F /  -0.8 °C 30.16in /  1021.2hPa NNW 0.1mph /  0.2km/h 4mph /  6.4km/h 67% 0.00in /  0mm 0 W/m2
05:14 40.6 °F /  4.8 °C 30.5 °F /  -0.8 °C 30.16in /  1021.2hPa Calm   4mph /  6.4km/h 67% 0.00in /  0mm 0 W/m2
05:19 40.6 °F /  4.8 °C 30.6 °F /  -0.8 °C 30.16in /  1021.2hPa Calm   4mph /  6.4km/h 67.2% 0.00in /  0mm 0 W/m2
05:24 40.6 °F /  4.8 °C 31 °F /  -0.6 °C 30.16in /  1021.2hPa NNW 1mph /  1.6km/h 5mph /  8km/h 68.3% 0.00in /  0mm 0 W/m2
05:29 40.6 °F /  4.8 °C 31.8 °F /  -0.1 °C 30.16in /  1021.2hPa NNW 0.2mph /  0.3km/h 5mph /  8km/h 70.6% 0.00in /  0mm 0 W/m2
05:34 40.5 °F /  4.7 °C 32 °F /  0 °C 30.16in /  1021.2hPa Calm   5mph /  8km/h 71.6% 0.00in /  0mm 0 W/m2
05:39 40.4 °F /  4.7 °C 32.3 °F /  0.2 °C 30.16in /  1021.2hPa NNW 0.1mph /  0.2km/h 2mph /  3.2km/h 72.8% 0.00in /  0mm 0 W/m2
05:44 40.2 °F /  4.6 °C 32.6 °F /  0.3 °C 30.16in /  1021.2hPa NNW 0.2mph /  0.3km/h 2mph /  3.2km/h 73.9% 0.00in /  0mm 0 W/m2
05:49 40.1 °F /  4.5 °C 32.7 °F /  0.4 °C 30.16in /  1021.2hPa Calm   2mph /  3.2km/h 74.6% 0.00in /  0mm 0 W/m2
05:54 40.1 °F /  4.5 °C 33.1 °F /  0.6 °C 30.17in /  1021.6hPa Calm   2mph /  3.2km/h 75.9% 0.00in /  0mm 0 W/m2
05:59 39.9 °F /  4.4 °C 32.6 °F /  0.3 °C 30.16in /  1021.2hPa Calm   2mph /  3.2km/h 75% 0.00in /  0mm 0 W/m2
06:04 39.7 °F /  4.3 °C 32.5 °F /  0.3 °C 30.17in /  1021.6hPa Calm   2mph /  3.2km/h 75% 0.01in /  0.25mm 0 W/m2
06:09 39.7 °F /  4.3 °C 32.4 °F /  0.2 °C 30.17in /  1021.6hPa Calm     75% 0.01in /  0.25mm 0 W/m2
06:14 39.6 °F /  4.2 °C 32.3 °F /  0.2 °C 30.17in /  1021.6hPa Calm   1mph /  1.6km/h 74.8% 0.01in /  0.25mm 0 W/m2
06:19 39.5 °F /  4.2 °C 32.1 °F /  0.1 °C 30.16in /  1021.2hPa Calm   1mph /  1.6km/h 74.5% 0.01in /  0.25mm 0 W/m2
06:24 39.5 °F /  4.2 °C 32.3 °F /  0.2 °C 30.17in /  1021.6hPa Calm   1mph /  1.6km/h 75% 0.01in /  0.25mm 0 W/m2
06:29 39.5 °F /  4.2 °C 32.6 °F /  0.3 °C 30.17in /  1021.6hPa NNW 0.1mph /  0.2km/h 2mph /  3.2km/h 76% 0.01in /  0.25mm 0 W/m2
06:34 39.5 °F /  4.2 °C 32.3 °F /  0.2 °C 30.17in /  1021.6hPa Calm   2mph /  3.2km/h 75.2% 0.01in /  0.25mm 0 W/m2
06:39 39.5 °F /  4.2 °C 32.2 °F /  0.1 °C 30.16in /  1021.2hPa Calm     74.9% 0.01in /  0.25mm 0 W/m2
06:44 39.5 °F /  4.2 °C 32.2 °F /  0.1 °C 30.16in /  1021.2hPa Calm     74.7% 0.01in /  0.25mm 0 W/m2
06:49 39.5 °F /  4.2 °C 32.3 °F /  0.2 °C 30.17in /  1021.6hPa Calm     75% 0.01in /  0.25mm 0 W/m2
06:54 39.5 °F /  4.2 °C 32.3 °F /  0.2 °C 30.17in /  1021.6hPa Calm     75% 0.01in /  0.25mm 0 W/m2
06:59 39.5 °F /  4.2 °C 32.3 °F /  0.2 °C 30.18in /  1021.9hPa Calm     75% 0.01in /  0.25mm 0 W/m2
07:04 39.5 °F /  4.2 °C 32.6 °F /  0.3 °C 30.18in /  1021.9hPa Calm     76% 0.01in /  0.25mm 0 W/m2
07:09 39.5 °F /  4.2 °C 32.6 °F /  0.3 °C 30.18in /  1021.9hPa Calm     76% 0.01in /  0.25mm 0 W/m2
07:14 39.5 °F /  4.2 °C 32.5 °F /  0.3 °C 30.17in /  1021.6hPa Calm     76% 0.01in /  0.25mm 0 W/m2
07:19 39.3 °F /  4.1 °C 32.4 °F /  0.2 °C 30.17in /  1021.6hPa Calm     76% 0.01in /  0.25mm 0 W/m2
07:24 39.3 °F /  4.1 °C 32.9 °F /  0.5 °C 30.17in /  1021.6hPa Calm     77.6% 0.01in /  0.25mm 0 W/m2
07:29 39.3 °F /  4.1 °C 33 °F /  0.6 °C 30.17in /  1021.6hPa Calm     78% 0.01in /  0.25mm 0 W/m2
07:34 39.2 °F /  4 °C 33.2 °F /  0.7 °C 30.17in /  1021.6hPa Calm     78.8% 0.01in /  0.25mm 0 W/m2
07:39 39.1 °F /  3.9 °C 33.3 °F /  0.7 °C 30.17in /  1021.6hPa Calm     79.3% 0.00in /  0mm 0 W/m2
07:44 39 °F /  3.9 °C 33.3 °F /  0.7 °C 30.18in /  1021.9hPa Calm     80% 0.00in /  0mm 5 W/m2
07:49 38.9 °F /  3.8 °C 33.2 °F /  0.7 °C 30.18in /  1021.9hPa Calm     80% 0.00in /  0mm 7 W/m2
07:54 38.8 °F /  3.8 °C 33.1 °F /  0.6 °C 30.18in /  1021.9hPa Calm     80% 0.00in /  0mm 9 W/m2
07:59 38.6 °F /  3.7 °C 33.2 °F /  0.7 °C 30.18in /  1021.9hPa Calm     80.5% 0.00in /  0mm 12 W/m2
08:00 38.6 °F /  3.7 °C 33.3 °F /  0.7 °C 30.18in /  1021.9hPa Calm     81% 0.00in /  0mm 12 W/m2
08:09 38.5 °F /  3.6 °C 33.2 °F /  0.7 °C 30.18in /  1021.9hPa Calm     81% 0.00in /  0mm 21 W/m2
08:14 38.5 °F /  3.6 °C 33.2 °F /  0.7 °C 30.18in /  1021.9hPa Calm     81% 0.00in /  0mm 23 W/m2
08:19 38.5 °F /  3.6 °C 33.2 °F /  0.7 °C 30.18in /  1021.9hPa Calm     81% 0.01in /  0.25mm 23 W/m2
08:24 38.5 °F /  3.6 °C 33.2 °F /  0.7 °C 30.17in /  1021.6hPa Calm     81% 0.01in /  0.25mm 28 W/m2
08:29 38.6 °F /  3.7 °C 33.3 °F /  0.7 °C 30.17in /  1021.6hPa Calm     81% 0.01in /  0.25mm 46 W/m2
08:34 38.5 °F /  3.6 °C 33 °F /  0.6 °C 30.17in /  1021.6hPa Calm     80.5% 0.01in /  0.25mm 49 W/m2
08:39 38.5 °F /  3.6 °C 32.9 °F /  0.5 °C 30.17in /  1021.6hPa Calm     80% 0.01in /  0.25mm 40 W/m2
08:44 38.5 °F /  3.6 °C 32.9 °F /  0.5 °C 30.17in /  1021.6hPa Calm     80% 0.01in /  0.25mm 39 W/m2
08:49 38.6 °F /  3.7 °C 33.2 °F /  0.7 °C 30.17in /  1021.6hPa Calm     80.8% 0.01in /  0.25mm 35 W/m2
08:54 38.7 °F /  3.7 °C 33.2 °F /  0.7 °C 30.17in /  1021.6hPa Calm     80.5% 0.01in /  0.25mm 47 W/m2
08:59 38.8 °F /  3.8 °C 33.2 °F /  0.7 °C 30.17in /  1021.6hPa Calm     80% 0.01in /  0.25mm 54 W/m2
09:04 38.8 °F /  3.8 °C 33.1 °F /  0.6 °C 30.17in /  1021.6hPa Calm     79.6% 0.01in /  0.25mm 51 W/m2
09:09 38.9 °F /  3.8 °C 33 °F /  0.6 °C 30.17in /  1021.6hPa Calm     79% 0.01in /  0.25mm 54 W/m2
09:14 39.1 °F /  3.9 °C 33.1 °F /  0.6 °C 30.16in /  1021.2hPa Calm     79% 0.01in /  0.25mm 62 W/m2
09:19 39.2 °F /  4 °C 33.3 °F /  0.7 °C 30.17in /  1021.6hPa Calm     79.3% 0.01in /  0.25mm 76 W/m2
09:24 39.3 °F /  4.1 °C 33.7 °F /  0.9 °C 30.17in /  1021.6hPa Calm     80% 0.01in /  0.25mm 76 W/m2
09:29 39.5 °F /  4.2 °C 33.5 °F /  0.8 °C 30.17in /  1021.6hPa Calm     79.1% 0.02in /  0.51mm 74 W/m2
09:34 39.6 °F /  4.2 °C 33.3 °F /  0.7 °C 30.17in /  1021.6hPa Calm     78% 0.02in /  0.51mm 65 W/m2
09:39 39.7 °F /  4.3 °C 33.2 °F /  0.7 °C 30.17in /  1021.6hPa Calm     77.3% 0.01in /  0.25mm 42 W/m2
09:44 39.8 °F /  4.3 °C 32.9 °F /  0.5 °C 30.17in /  1021.6hPa Calm     76.3% 0.01in /  0.25mm 42 W/m2
09:49 39.8 °F /  4.3 °C 32.6 °F /  0.3 °C 30.17in /  1021.6hPa Calm     75.3% 0.01in /  0.25mm 40 W/m2
09:54 39.9 °F /  4.4 °C 32.6 °F /  0.3 °C 30.17in /  1021.6hPa Calm     75% 0.01in /  0.25mm 37 W/m2
09:59 39.9 °F /  4.4 °C 32.6 °F /  0.3 °C 30.17in /  1021.6hPa Calm     75% 0.01in /  0.25mm 70 W/m2
10:04 40 °F /  4.4 °C 32.7 °F /  0.4 °C 30.16in /  1021.2hPa Calm     75% 0.01in /  0.25mm 72 W/m2
10:09 40 °F /  4.4 °C 32.5 °F /  0.3 °C 30.16in /  1021.2hPa Calm     74.3% 0.01in /  0.25mm 58 W/m2
10:14 40.1 °F /  4.5 °C 32.8 °F /  0.4 °C 30.16in /  1021.2hPa Calm     74.8% 0.01in /  0.25mm 54 W/m2
10:19 40.2 °F /  4.6 °C 32.6 °F /  0.3 °C 30.16in /  1021.2hPa Calm     74% 0.01in /  0.25mm 70 W/m2
10:24 40.2 °F /  4.6 °C 32.4 °F /  0.2 °C 30.15in /  1020.9hPa Calm     73.5% 0.01in /  0.25mm 69 W/m2
10:29 40.2 °F /  4.6 °C 32.6 °F /  0.3 °C 30.15in /  1020.9hPa Calm     74% 0.01in /  0.25mm 74 W/m2
10:34 40.2 °F /  4.6 °C 32.6 °F /  0.3 °C 30.15in /  1020.9hPa Calm     74.2% 0.01in /  0.25mm 83 W/m2
10:39 40.3 °F /  4.6 °C 33 °F /  0.6 °C 30.15in /  1020.9hPa Calm     74.9% 0.00in /  0mm 83 W/m2
10:44 40.3 °F /  4.6 °C 33 °F /  0.6 °C 30.14in /  1020.5hPa Calm     75% 0.00in /  0mm 98 W/m2
10:49 40.3 °F /  4.6 °C 33.5 °F /  0.8 °C 30.14in /  1020.5hPa Calm     76.3% 0.00in /  0mm 86 W/m2
10:54 40.4 °F /  4.7 °C 34.1 °F /  1.2 °C 30.13in /  1020.2hPa NNW 0.1mph /  0.2km/h 2mph /  3.2km/h 77.8% 0.00in /  0mm 97 W/m2
10:59 40.4 °F /  4.7 °C 33.5 °F /  0.8 °C 30.12in /  1019.9hPa NNW 0.1mph /  0.2km/h 2mph /  3.2km/h 76.2% 0.00in /  0mm 97 W/m2
11:04 40.4 °F /  4.7 °C 33.2 °F /  0.7 °C 30.12in /  1019.9hPa Calm   2mph /  3.2km/h 75.4% 0.00in /  0mm 83 W/m2
11:09 40.3 °F /  4.6 °C 32.8 °F /  0.4 °C 30.12in /  1019.9hPa Calm     74.2% 0.00in /  0mm 79 W/m2
11:14 40.3 °F /  4.6 °C 32.7 °F /  0.4 °C 30.12in /  1019.9hPa Calm     74% 0.00in /  0mm 58 W/m2
11:19 40.2 °F /  4.6 °C 32.5 °F /  0.3 °C 30.12in /  1019.9hPa Calm     73.5% 0.00in /  0mm 58 W/m2
11:24 40.2 °F /  4.6 °C 32.7 °F /  0.4 °C 30.12in /  1019.9hPa Calm     74.2% 0.00in /  0mm 62 W/m2
11:29 40.3 °F /  4.6 °C 33 °F /  0.6 °C 30.11in /  1019.5hPa Calm     75% 0.00in /  0mm 67 W/m2
11:34 40.3 °F /  4.6 °C 32.9 °F /  0.5 °C 30.11in /  1019.5hPa Calm     74.7% 0.00in /  0mm 67 W/m2
11:39 40.2 °F /  4.6 °C 33 °F /  0.6 °C 30.11in /  1019.5hPa Calm     75.2% 0.00in /  0mm 56 W/m2
11:44 40.2 °F /  4.6 °C 33.1 °F /  0.6 °C 30.11in /  1019.5hPa Calm     75.6% 0.00in /  0mm 53 W/m2
11:49 40.1 °F /  4.5 °C 33.3 °F /  0.7 °C 30.11in /  1019.5hPa Calm     76.4% 0.00in /  0mm 69 W/m2
11:54 40.1 °F /  4.5 °C 33.6 °F /  0.9 °C 30.10in /  1019.2hPa Calm     77.5% 0.01in /  0.25mm 70 W/m2
11:59 40 °F /  4.4 °C 33.8 °F /  1 °C 30.10in /  1019.2hPa Calm     78.2% 0.01in /  0.25mm 62 W/m2
12:00 40 °F /  4.4 °C 34 °F /  1.1 °C 30.09in /  1018.8hPa Calm     79% 0.01in /  0.25mm 62 W/m2
12:09 40 °F /  4.4 °C 34.4 °F /  1.3 °C 30.10in /  1019.2hPa Calm     80% 0.01in /  0.25mm 72 W/m2
12:14 40.1 °F /  4.5 °C 34.5 °F /  1.4 °C 30.10in /  1019.2hPa Calm     80.3% 0.01in /  0.25mm 65 W/m2
12:19 40.1 °F /  4.5 °C 34.7 °F /  1.5 °C 30.10in /  1019.2hPa Calm     80.7% 0.02in /  0.51mm 58 W/m2
12:24 40 °F /  4.4 °C 34.5 °F /  1.4 °C 30.09in /  1018.8hPa Calm     80.5% 0.02in /  0.51mm 72 W/m2
12:29 39.9 °F /  4.4 °C 34.7 °F /  1.5 °C 30.09in /  1018.8hPa Calm     81.7% 0.02in /  0.51mm 77 W/m2
12:34 39.8 °F /  4.3 °C 34.8 °F /  1.6 °C 30.09in /  1018.8hPa Calm     82.2% 0.02in /  0.51mm 49 W/m2
12:39 39.7 °F /  4.3 °C 35 °F /  1.7 °C 30.09in /  1018.8hPa Calm     83% 0.02in /  0.51mm 35 W/m2
12:44 39.7 °F /  4.3 °C 35 °F /  1.7 °C 30.09in /  1018.8hPa Calm     83.1% 0.02in /  0.51mm 46 W/m2
12:49 39.6 °F /  4.2 °C 35.1 °F /  1.7 °C 30.08in /  1018.5hPa NNW 0.3mph /  0.5km/h 3mph /  4.8km/h 83.8% 0.02in /  0.51mm 54 W/m2
12:54 39.4 °F /  4.1 °C 35 °F /  1.7 °C 30.07in /  1018.2hPa Calm   3mph /  4.8km/h 84% 0.02in /  0.51mm 54 W/m2
12:59 39.3 °F /  4.1 °C 34.9 °F /  1.6 °C 30.07in /  1018.2hPa Calm   3mph /  4.8km/h 84% 0.02in /  0.51mm 54 W/m2
13:04 39.2 °F /  4 °C 34.9 °F /  1.6 °C 30.07in /  1018.2hPa NNW 0.3mph /  0.5km/h 3mph /  4.8km/h 84.4% 0.02in /  0.51mm 46 W/m2
13:09 39.2 °F /  4 °C 35.1 °F /  1.7 °C 30.07in /  1018.2hPa NNW 0.8mph /  1.3km/h 3mph /  4.8km/h 85% 0.01in /  0.25mm 49 W/m2
13:14 39.1 °F /  3.9 °C 35 °F /  1.7 °C 30.06in /  1017.8hPa NNW 0.7mph /  1.1km/h 3mph /  4.8km/h 85% 0.02in /  0.51mm 46 W/m2
13:19 39.1 °F /  3.9 °C 35 °F /  1.7 °C 30.05in /  1017.5hPa NNW 0.2mph /  0.3km/h 3mph /  4.8km/h 85% 0.02in /  0.51mm 51 W/m2
13:24 39.1 °F /  3.9 °C 35.1 °F /  1.7 °C 30.06in /  1017.8hPa NNW 0.4mph /  0.6km/h 3mph /  4.8km/h 85.4% 0.02in /  0.51mm 40 W/m2
13:29 39 °F /  3.9 °C 35.2 °F /  1.8 °C 30.06in /  1017.8hPa NNW 0.5mph /  0.8km/h 3mph /  4.8km/h 86% 0.02in /  0.51mm 30 W/m2
13:34 38.9 °F /  3.8 °C 35.1 °F /  1.7 °C 30.05in /  1017.5hPa NNW 1.5mph /  2.4km/h 5mph /  8km/h 86% 0.02in /  0.51mm 30 W/m2
13:39 38.8 °F /  3.8 °C 35 °F /  1.7 °C 30.04in /  1017.2hPa NNE 1.9mph /  3.1km/h 5mph /  8km/h 86% 0.02in /  0.51mm 32 W/m2
13:44 38.7 °F /  3.7 °C 35.2 °F /  1.8 °C 30.04in /  1017.2hPa NE 1.1mph /  1.8km/h 5mph /  8km/h 86.9% 0.02in /  0.51mm 33 W/m2
13:49 38.7 °F /  3.7 °C 35.2 °F /  1.8 °C 30.05in /  1017.5hPa NE 1.9mph /  3.1km/h 5mph /  8km/h 87% 0.03in /  0.76mm 28 W/m2
13:54 38.6 °F /  3.7 °C 35.1 °F /  1.7 °C 30.05in /  1017.5hPa NE 0.8mph /  1.3km/h 5mph /  8km/h 87% 0.03in /  0.76mm 26 W/m2
13:59 38.5 °F /  3.6 °C 35 °F /  1.7 °C 30.05in /  1017.5hPa NE 2.4mph /  3.9km/h 5mph /  8km/h 87% 0.03in /  0.76mm 47 W/m2
14:04 38.4 °F /  3.6 °C 35 °F /  1.7 °C 30.03in /  1016.8hPa NE 1.6mph /  2.6km/h 5mph /  8km/h 87.2% 0.03in /  0.76mm 63 W/m2
14:09 38.4 °F /  3.6 °C 35.2 °F /  1.8 °C 30.03in /  1016.8hPa NE 0.7mph /  1.1km/h 4mph /  6.4km/h 88% 0.03in /  0.76mm 30 W/m2
14:14 38.4 °F /  3.6 °C 35.2 °F /  1.8 °C 30.04in /  1017.2hPa NE 0.9mph /  1.4km/h 4mph /  6.4km/h 88% 0.03in /  0.76mm 25 W/m2
14:19 38.4 °F /  3.6 °C 35.2 °F /  1.8 °C 30.03in /  1016.8hPa NE 1mph /  1.6km/h 4mph /  6.4km/h 88% 0.03in /  0.76mm 19 W/m2
14:24 38.4 °F /  3.6 °C 35.4 °F /  1.9 °C 30.03in /  1016.8hPa NE 1mph /  1.6km/h 4mph /  6.4km/h 88.7% 0.03in /  0.76mm 25 W/m2
14:29 38.3 °F /  3.5 °C 35.3 °F /  1.8 °C 30.03in /  1016.8hPa NE 1.1mph /  1.8km/h 6mph /  9.7km/h 88.7% 0.03in /  0.76mm 25 W/m2
14:34 38.3 °F /  3.5 °C 35.3 °F /  1.8 °C 30.02in /  1016.5hPa NE 1mph /  1.6km/h 6mph /  9.7km/h 89% 0.03in /  0.76mm 23 W/m2
14:39 38.3 °F /  3.5 °C 35.3 °F /  1.8 °C 30.02in /  1016.5hPa NE 1.4mph /  2.3km/h 4mph /  6.4km/h 89% 0.03in /  0.76mm 23 W/m2
14:44 38.1 °F /  3.4 °C 35.2 °F /  1.8 °C 30.02in /  1016.5hPa ENE 2.9mph /  4.7km/h 7mph /  11.3km/h 89% 0.03in /  0.76mm 21 W/m2
14:49 38 °F /  3.3 °C 35.2 °F /  1.8 °C 30.01in /  1016.1hPa ENE 1.3mph /  2.1km/h 7mph /  11.3km/h 89.5% 0.03in /  0.76mm 12 W/m2
14:54 37.9 °F /  3.3 °C 35.2 °F /  1.8 °C 30.02in /  1016.5hPa ENE 0.9mph /  1.4km/h 7mph /  11.3km/h 90% 0.03in /  0.76mm 9 W/m2
14:59 37.9 °F /  3.3 °C 35.2 °F /  1.8 °C 30.02in /  1016.5hPa ENE 1.2mph /  1.9km/h 7mph /  11.3km/h 90% 0.03in /  0.76mm 7 W/m2
15:04 37.8 °F /  3.2 °C 35.1 °F /  1.7 °C 30.02in /  1016.5hPa ENE 1mph /  1.6km/h 7mph /  11.3km/h 90% 0.03in /  0.76mm 9 W/m2
15:09 37.8 °F /  3.2 °C 35.3 °F /  1.8 °C 30.02in /  1016.5hPa ENE 0.3mph /  0.5km/h 5mph /  8km/h 90.4% 0.02in /  0.51mm 5 W/m2
15:14 37.8 °F /  3.2 °C 35.4 °F /  1.9 °C 30.02in /  1016.5hPa ENE 0.3mph /  0.5km/h 5mph /  8km/h 91% 0.02in /  0.51mm 0 W/m2
15:19 37.8 °F /  3.2 °C 35.4 °F /  1.9 °C 30.01in /  1016.1hPa ENE 1mph /  1.6km/h 5mph /  8km/h 91% 0.03in /  0.76mm 5 W/m2
15:24 37.8 °F /  3.2 °C 35.4 °F /  1.9 °C 30.01in /  1016.1hPa ENE 1.3mph /  2.1km/h 6mph /  9.7km/h 91% 0.04in /  1.02mm 5 W/m2
15:29 37.8 °F /  3.2 °C 35.4 °F /  1.9 °C 30.01in /  1016.1hPa ENE 1.6mph /  2.6km/h 6mph /  9.7km/h 91% 0.04in /  1.02mm 0 W/m2
15:34 37.7 °F /  3.2 °C 35.3 °F /  1.8 °C 30.01in /  1016.1hPa ENE 2.4mph /  3.9km/h 6mph /  9.7km/h 91% 0.05in /  1.27mm 5 W/m2
15:39 37.5 °F /  3.1 °C 35.3 °F /  1.8 °C 30.00in /  1015.8hPa ENE 0.9mph /  1.4km/h 6mph /  9.7km/h 91.4% 0.05in /  1.27mm 5 W/m2
15:44 37.5 °F /  3.1 °C 35.4 °F /  1.9 °C 30.00in /  1015.8hPa ENE 0.7mph /  1.1km/h 6mph /  9.7km/h 92% 0.05in /  1.27mm 0 W/m2
15:49 37.5 °F /  3.1 °C 35.4 °F /  1.9 °C 29.99in /  1015.5hPa ENE 0.7mph /  1.1km/h 6mph /  9.7km/h 92% 0.05in /  1.27mm 0 W/m2
15:54 37.5 °F /  3.1 °C 35.4 °F /  1.9 °C 29.99in /  1015.5hPa ENE 2.3mph /  3.7km/h 6mph /  9.7km/h 92% 0.05in /  1.27mm 0 W/m2
15:59 37.4 °F /  3 °C 35.3 °F /  1.8 °C 29.99in /  1015.5hPa ENE 2.4mph /  3.9km/h 6mph /  9.7km/h 92% 0.05in /  1.27mm 0 W/m2
16:00 37.4 °F /  3 °C 35.3 °F /  1.8 °C 29.98in /  1015.1hPa ENE 2mph /  3.2km/h 6mph /  9.7km/h 92% 0.05in /  1.27mm 0 W/m2
16:09 37.3 °F /  2.9 °C 35.2 °F /  1.8 °C 29.98in /  1015.1hPa ENE 1.4mph /  2.3km/h 6mph /  9.7km/h 92% 0.06in /  1.52mm 0 W/m2
16:14 37.3 °F /  2.9 °C 35.2 °F /  1.8 °C 29.98in /  1015.1hPa ENE 1.3mph /  2.1km/h 6mph /  9.7km/h 92% 0.06in /  1.52mm 0 W/m2
16:19 37.3 °F /  2.9 °C 35.4 °F /  1.9 °C 29.98in /  1015.1hPa ENE 0.5mph /  0.8km/h 6mph /  9.7km/h 92.9% 0.06in /  1.52mm 0 W/m2
16:24 37.2 °F /  2.9 °C 35.4 °F /  1.9 °C 29.98in /  1015.1hPa ENE 0.8mph /  1.3km/h 6mph /  9.7km/h 93% 0.06in /  1.52mm 0 W/m2
16:29 37.1 °F /  2.8 °C 35.1 °F /  1.7 °C 29.97in /  1014.8hPa ENE 1mph /  1.6km/h 6mph /  9.7km/h 92.1% 0.06in /  1.52mm 0 W/m2
16:34 37 °F /  2.8 °C 34.9 °F /  1.6 °C 29.97in /  1014.8hPa ENE 2.4mph /  3.9km/h 6mph /  9.7km/h 92% 0.06in /  1.52mm 0 W/m2
16:39 36.9 °F /  2.7 °C 34.9 °F /  1.6 °C 29.97in /  1014.8hPa ENE 1.6mph /  2.6km/h 6mph /  9.7km/h 92.2% 0.02in /  0.51mm 0 W/m2
16:44 36.8 °F /  2.7 °C 35 °F /  1.7 °C 29.97in /  1014.8hPa ENE 0.9mph /  1.4km/h 6mph /  9.7km/h 93% 0.03in /  0.76mm 0 W/m2
16:49 36.8 °F /  2.7 °C 35 °F /  1.7 °C 29.97in /  1014.8hPa ENE 1.8mph /  2.9km/h 6mph /  9.7km/h 93% 0.03in /  0.76mm 0 W/m2
16:54 36.8 °F /  2.7 °C 34.9 °F /  1.6 °C 29.96in /  1014.4hPa Calm   6mph /  9.7km/h 93% 0.03in /  0.76mm 0 W/m2
16:59 36.8 °F /  2.7 °C 35 °F /  1.7 °C 29.96in /  1014.4hPa Calm   6mph /  9.7km/h 93% 0.03in /  0.76mm 0 W/m2
17:04 36.8 °F /  2.7 °C 35 °F /  1.7 °C 29.96in /  1014.4hPa ENE 0.4mph /  0.6km/h 6mph /  9.7km/h 93% 0.03in /  0.76mm 0 W/m2
17:09 36.8 °F /  2.7 °C 35 °F /  1.7 °C 29.96in /  1014.4hPa ENE 0.5mph /  0.8km/h 3mph /  4.8km/h 93% 0.01in /  0.25mm 0 W/m2
17:14 36.9 °F /  2.7 °C 35.1 °F /  1.7 °C 29.96in /  1014.4hPa Calm   3mph /  4.8km/h 93% 0.01in /  0.25mm 0 W/m2
17:19 37 °F /  2.8 °C 35.1 °F /  1.7 °C 29.96in /  1014.4hPa Calm   3mph /  4.8km/h 93% 0.01in /  0.25mm 0 W/m2
17:24 37 °F /  2.8 °C 35.1 °F /  1.7 °C 29.95in /  1014.1hPa Calm   3mph /  4.8km/h 93% 0.01in /  0.25mm 0 W/m2
17:29 37 °F /  2.8 °C 35.2 °F /  1.8 °C 29.96in /  1014.4hPa Calm   3mph /  4.8km/h 93% 0.01in /  0.25mm 0 W/m2
17:34 37 °F /  2.8 °C 35.2 °F /  1.8 °C 29.96in /  1014.4hPa Calm   3mph /  4.8km/h 93% 0.01in /  0.25mm 0 W/m2
17:39 37 °F /  2.8 °C 35.2 °F /  1.8 °C 29.96in /  1014.4hPa Calm     93% 0.01in /  0.25mm 0 W/m2
17:44 37.1 °F /  2.8 °C 35.5 °F /  1.9 °C 29.96in /  1014.4hPa ENE 0.6mph /  1km/h 4mph /  6.4km/h 93.8% 0.01in /  0.25mm 0 W/m2
17:49 37.1 °F /  2.8 °C 35.5 °F /  1.9 °C 29.95in /  1014.1hPa Calm   4mph /  6.4km/h 94% 0.01in /  0.25mm 0 W/m2
17:54 37.1 °F /  2.8 °C 35.6 °F /  2 °C 29.95in /  1014.1hPa ENE 0.3mph /  0.5km/h 4mph /  6.4km/h 94% 0.02in /  0.51mm 0 W/m2
17:59 37.2 °F /  2.9 °C 35.6 °F /  2 °C 29.95in /  1014.1hPa ENE 0.1mph /  0.2km/h 4mph /  6.4km/h 94% 0.02in /  0.51mm 0 W/m2
18:04 37.2 °F /  2.9 °C 35.6 °F /  2 °C 29.95in /  1014.1hPa Calm   4mph /  6.4km/h 94% 0.02in /  0.51mm 0 W/m2
18:09 37.1 °F /  2.8 °C 35.5 °F /  1.9 °C 29.94in /  1013.8hPa Calm     94% 0.01in /  0.25mm 0 W/m2
18:14 37.1 °F /  2.8 °C 35.4 °F /  1.9 °C 29.94in /  1013.8hPa ENE 0.2mph /  0.3km/h 2mph /  3.2km/h 93.6% 0.01in /  0.25mm 0 W/m2
18:19 37.1 °F /  2.8 °C 35.3 °F /  1.8 °C 29.94in /  1013.8hPa ENE 0.1mph /  0.2km/h 2mph /  3.2km/h 93.3% 0.01in /  0.25mm 0 W/m2
18:24 37 °F /  2.8 °C 35.4 °F /  1.9 °C 29.94in /  1013.8hPa Calm   2mph /  3.2km/h 94% 0.02in /  0.51mm 0 W/m2
18:29 37 °F /  2.8 °C 35.5 °F /  1.9 °C 29.93in /  1013.4hPa Calm   2mph /  3.2km/h 94% 0.02in /  0.51mm 0 W/m2
18:34 37.1 °F /  2.8 °C 35.5 °F /  1.9 °C 29.94in /  1013.8hPa Calm   2mph /  3.2km/h 94% 0.02in /  0.51mm 0 W/m2
18:39 37.1 °F /  2.8 °C 35.5 °F /  1.9 °C 29.94in /  1013.8hPa ENE 0.7mph /  1.1km/h 3mph /  4.8km/h 94% 0.02in /  0.51mm 0 W/m2
18:44 37.1 °F /  2.8 °C 35.5 °F /  1.9 °C 29.93in /  1013.4hPa ENE 0.4mph /  0.6km/h 3mph /  4.8km/h 94% 0.02in /  0.51mm 0 W/m2
18:49 37 °F /  2.8 °C 35.5 °F /  1.9 °C 29.93in /  1013.4hPa ENE 0.5mph /  0.8km/h 5mph /  8km/h 94% 0.02in /  0.51mm 0 W/m2
18:54 37.1 °F /  2.8 °C 35.5 °F /  1.9 °C 29.93in /  1013.4hPa ENE 0.1mph /  0.2km/h 5mph /  8km/h 94% 0.03in /  0.76mm 0 W/m2
18:59 37.1 °F /  2.8 °C 35.5 °F /  1.9 °C 29.92in /  1013.1hPa Calm   5mph /  8km/h 94% 0.03in /  0.76mm 0 W/m2
19:04 37.1 °F /  2.8 °C 35.5 °F /  1.9 °C 29.92in /  1013.1hPa Calm   5mph /  8km/h 94% 0.03in /  0.76mm 0 W/m2
19:09 37.1 °F /  2.8 °C 35.5 °F /  1.9 °C 29.92in /  1013.1hPa Calm     94% 0.02in /  0.51mm 0 W/m2
19:14 37.1 °F /  2.8 °C 35.5 °F /  1.9 °C 29.92in /  1013.1hPa ENE 0.7mph /  1.1km/h 3mph /  4.8km/h 94% 0.02in /  0.51mm 0 W/m2
19:19 37.1 °F /  2.8 °C 35.5 °F /  1.9 °C 29.92in /  1013.1hPa ENE 0.1mph /  0.2km/h 3mph /  4.8km/h 94% 0.03in /  0.76mm 0 W/m2
19:24 37.1 °F /  2.8 °C 35.5 °F /  1.9 °C 29.91in /  1012.8hPa ENE 0.2mph /  0.3km/h 3mph /  4.8km/h 94% 0.03in /  0.76mm 0 W/m2
19:29 37.1 °F /  2.8 °C 35.5 °F /  1.9 °C 29.91in /  1012.8hPa Calm   3mph /  4.8km/h 94% 0.03in /  0.76mm 0 W/m2
19:34 37.1 °F /  2.8 °C 35.5 °F /  1.9 °C 29.91in /  1012.8hPa ENE 0.3mph /  0.5km/h 3mph /  4.8km/h 94% 0.03in /  0.76mm 0 W/m2
19:39 37.1 °F /  2.8 °C 35.5 °F /  1.9 °C 29.91in /  1012.8hPa Calm   3mph /  4.8km/h 94% 0.02in /  0.51mm 0 W/m2
19:44 37.1 °F /  2.8 °C 35.5 °F /  1.9 °C 29.91in /  1012.8hPa Calm   3mph /  4.8km/h 94% 0.02in /  0.51mm 0 W/m2
19:49 37.1 °F /  2.8 °C 35.6 °F /  2 °C 29.91in /  1012.8hPa ENE 0.3mph /  0.5km/h 3mph /  4.8km/h 94% 0.02in /  0.51mm 0 W/m2
19:54 37.1 °F /  2.8 °C 35.6 °F /  2 °C 29.90in /  1012.4hPa ENE 0.9mph /  1.4km/h 5mph /  8km/h 94% 0.02in /  0.51mm 0 W/m2
19:59 37.1 °F /  2.8 °C 35.6 °F /  2 °C 29.90in /  1012.4hPa ENE 1.1mph /  1.8km/h 5mph /  8km/h 94% 0.02in /  0.51mm 0 W/m2
20:00 37.1 °F /  2.8 °C 35.5 °F /  1.9 °C 29.90in /  1012.4hPa ENE 2.5mph /  4km/h 5mph /  8km/h 94% 0.02in /  0.51mm 0 W/m2
20:09 37.1 °F /  2.8 °C 35.5 °F /  1.9 °C 29.90in /  1012.4hPa ENE 0.2mph /  0.3km/h 2mph /  3.2km/h 94% 0.02in /  0.51mm 0 W/m2
20:14 37.1 °F /  2.8 °C 35.5 °F /  1.9 °C 29.89in /  1012.1hPa ENE 0.5mph /  0.8km/h 3mph /  4.8km/h 94% 0.02in /  0.51mm 0 W/m2
20:19 37.1 °F /  2.8 °C 35.5 °F /  1.9 °C 29.89in /  1012.1hPa ENE 1mph /  1.6km/h 4mph /  6.4km/h 94% 0.02in /  0.51mm 0 W/m2
20:24 37 °F /  2.8 °C 35.5 °F /  1.9 °C 29.89in /  1012.1hPa ENE 1mph /  1.6km/h 4mph /  6.4km/h 94% 0.02in /  0.51mm 0 W/m2
20:29 37 °F /  2.8 °C 35.6 °F /  2 °C 29.89in /  1012.1hPa ENE 1.2mph /  1.9km/h 4mph /  6.4km/h 94.4% 0.02in /  0.51mm 0 W/m2
20:34 37.1 °F /  2.8 °C 35.8 °F /  2.1 °C 29.89in /  1012.1hPa ENE 0.4mph /  0.6km/h 4mph /  6.4km/h 95% 0.02in /  0.51mm 0 W/m2
20:39 37.1 °F /  2.8 °C 35.8 °F /  2.1 °C 29.88in /  1011.7hPa ENE 0.1mph /  0.2km/h 3mph /  4.8km/h 95% 0.01in /  0.25mm 0 W/m2
20:44 37.1 °F /  2.8 °C 35.7 °F /  2.1 °C 29.88in /  1011.7hPa ENE 1.2mph /  1.9km/h 4mph /  6.4km/h 94.5% 0.02in /  0.51mm 0 W/m2
20:49 37.1 °F /  2.8 °C 35.5 °F /  1.9 °C 29.88in /  1011.7hPa ENE 0.8mph /  1.3km/h 4mph /  6.4km/h 94% 0.02in /  0.51mm 0 W/m2
20:54 37.1 °F /  2.8 °C 35.5 °F /  1.9 °C 29.87in /  1011.4hPa ENE 0.5mph /  0.8km/h 4mph /  6.4km/h 94% 0.02in /  0.51mm 0 W/m2
20:59 37 °F /  2.8 °C 35.4 °F /  1.9 °C 29.87in /  1011.4hPa ENE 0.8mph /  1.3km/h 4mph /  6.4km/h 94% 0.02in /  0.51mm 0 W/m2
21:04 36.9 °F /  2.7 °C 35.4 °F /  1.9 °C 29.87in /  1011.4hPa ENE 0.5mph /  0.8km/h 5mph /  8km/h 94% 0.02in /  0.51mm 0 W/m2
21:09 36.9 °F /  2.7 °C 35.3 °F /  1.8 °C 29.86in /  1011.1hPa ENE 0.6mph /  1km/h 6mph /  9.7km/h 94.2% 0.02in /  0.51mm 0 W/m2
21:14 36.8 °F /  2.7 °C 35.5 °F /  1.9 °C 29.85in /  1010.7hPa ENE 0.4mph /  0.6km/h 6mph /  9.7km/h 94.9% 0.02in /  0.51mm 0 W/m2
21:19 36.7 °F /  2.6 °C 35.4 °F /  1.9 °C 29.85in /  1010.7hPa Calm   6mph /  9.7km/h 95% 0.03in /  0.76mm 0 W/m2
21:24 36.7 °F /  2.6 °C 35.4 °F /  1.9 °C 29.85in /  1010.7hPa ENE 0.7mph /  1.1km/h 6mph /  9.7km/h 95% 0.03in /  0.76mm 0 W/m2
21:29 36.7 °F /  2.6 °C 35.4 °F /  1.9 °C 29.84in /  1010.4hPa ENE 0.5mph /  0.8km/h 6mph /  9.7km/h 95% 0.03in /  0.76mm 0 W/m2
21:34 36.7 °F /  2.6 °C 35.4 °F /  1.9 °C 29.84in /  1010.4hPa ENE 1.4mph /  2.3km/h 6mph /  9.7km/h 95% 0.03in /  0.76mm 0 W/m2
21:39 36.6 °F /  2.6 °C 35.3 °F /  1.8 °C 29.84in /  1010.4hPa Calm   4mph /  6.4km/h 95% 0.02in /  0.51mm 0 W/m2
21:44 36.6 °F /  2.6 °C 35.4 °F /  1.9 °C 29.83in /  1010hPa ENE 0.1mph /  0.2km/h 4mph /  6.4km/h 95% 0.02in /  0.51mm 0 W/m2
21:49 36.6 °F /  2.6 °C 35.3 °F /  1.8 °C 29.83in /  1010hPa Calm   4mph /  6.4km/h 95% 0.02in /  0.51mm 0 W/m2
21:54 36.6 °F /  2.6 °C 35.3 °F /  1.8 °C 29.83in /  1010hPa ENE 0.1mph /  0.2km/h 4mph /  6.4km/h 95% 0.03in /  0.76mm 0 W/m2
21:59 36.6 °F /  2.6 °C 35.3 °F /  1.8 °C 29.82in /  1009.7hPa ENE 0.1mph /  0.2km/h 4mph /  6.4km/h 95% 0.03in /  0.76mm 0 W/m2
22:04 36.6 °F /  2.6 °C 35.3 °F /  1.8 °C 29.82in /  1009.7hPa ENE 0.1mph /  0.2km/h 4mph /  6.4km/h 95% 0.03in /  0.76mm 0 W/m2
22:05 36.6 °F /  2.6 °C 35.3 °F /  1.8 °C 29.82in /  1009.7hPa Calm   2mph /  3.2km/h 95% 0.02in /  0.51mm 0 W/m2
22:30 36.5 °F /  2.5 °C 35.2 °F /  1.8 °C 29.80in /  1009hPa Calm   6mph /  9.7km/h 95% 0.03in /  0.76mm 0 W/m2
23:04 36.5 °F /  2.5 °C 35.2 °F /  1.8 °C 29.80in /  1009hPa NE 2.2mph /  3.5km/h 6mph /  9.7km/h 95% 0.03in /  0.76mm 0 W/m2
23:09 36.5 °F /  2.5 °C 35.2 °F /  1.8 °C 29.80in /  1009hPa NE 1.3mph /  2.1km/h 5mph /  8km/h 95% 0.02in /  0.51mm 0 W/m2
23:14 36.5 °F /  2.5 °C 35.2 °F /  1.8 °C 29.81in /  1009.4hPa NE 0.7mph /  1.1km/h 5mph /  8km/h 95% 0.02in /  0.51mm 0 W/m2
23:19 36.5 °F /  2.5 °C 35.2 °F /  1.8 °C 29.80in /  1009hPa North 2.8mph /  4.5km/h 6mph /  9.7km/h 95% 0.02in /  0.51mm 0 W/m2
23:24 36.5 °F /  2.5 °C 35.2 °F /  1.8 °C 29.80in /  1009hPa NNW 2.3mph /  3.7km/h 7mph /  11.3km/h 95% 0.02in /  0.51mm 0 W/m2
23:29 36.5 °F /  2.5 °C 35.2 °F /  1.8 °C 29.80in /  1009hPa NNW 0.3mph /  0.5km/h 7mph /  11.3km/h 95% 0.02in /  0.51mm 0 W/m2
23:34 36.5 °F /  2.5 °C 35.2 °F /  1.8 °C 29.80in /  1009hPa NNW 1mph /  1.6km/h 7mph /  11.3km/h 95% 0.02in /  0.51mm 0 W/m2
23:39 36.6 °F /  2.6 °C 35.3 °F /  1.8 °C 29.80in /  1009hPa NNW 2.7mph /  4.3km/h 6mph /  9.7km/h 95% 0.03in /  0.76mm 0 W/m2
23:44 36.6 °F /  2.6 °C 35.3 °F /  1.8 °C 29.80in /  1009hPa NNW 0.5mph /  0.8km/h 6mph /  9.7km/h 95% 0.05in /  1.27mm 0 W/m2
23:49 36.6 °F /  2.6 °C 35.3 °F /  1.8 °C 29.80in /  1009hPa NNW 2.6mph /  4.2km/h 6mph /  9.7km/h 95% 0.07in /  1.78mm 0 W/m2
23:54 36.6 °F /  2.6 °C 35.3 °F /  1.8 °C 29.79in /  1008.7hPa NNW 0.7mph /  1.1km/h 6mph /  9.7km/h 95% 0.08in /  2.03mm 0 W/m2
23:59 36.6 °F /  2.6 °C 35.3 °F /  1.8 °C 29.79in /  1008.7hPa NW 1.5mph /  2.4km/h 6mph /  9.7km/h 95% 0.09in /  2.29mm 0 W/m2
Hartford County Weather
Compliments of Weather Underground - 2 mb